Time;durP1;ratioP1;P1;durP2;ratioP2;P2;SDS_P1;SDS_P2;PMS_P1;PMS_P2;Temp;Humidity;BMP_temperature;BMP_pressure;BME280_temperature;BME280_humidity;BME280_pressure;Samples;Min_cycle;Max_cycle;Signal;HPM_P1;HPM_P2
2021/03/27 00:02:51;;;;;;;;;;;;;;;7.72;59.33;101071.33;1702348;84;20276;-55
2021/03/27 00:06:06;;;;;;;;;;;;;;;7.74;59.37;101067.97;1702575;84;20288;-55
2021/03/27 00:09:23;;;;;;;;;;;;;;;7.74;59.31;101066.61;1671880;84;20219;-55
2021/03/27 00:12:39;;;;;;;;;;;;;;;7.74;59.37;101078.34;1671030;85;20298;-55
2021/03/27 00:15:46;;;;;;;;;;;;;;;7.74;59.45;101070.70;1699007;83;20336;-56
2021/03/27 00:18:59;;;;;;;;;;;;;;;7.72;59.44;101069.48;1688383;83;20216;-55
2021/03/27 00:22:10;;;;;;;;;;;;;;;7.68;59.50;101079.41;1742776;82;20277;-56
2021/03/27 00:25:24;;;;;;;;;;;;;;;7.63;59.60;101072.53;1742798;82;20209;-56
2021/03/27 00:28:36;;;;;;;;;;;;;;;7.61;59.73;101068.23;1742758;82;20236;-55
2021/03/27 00:31:43;;;;;;;;;;;;;;;7.57;59.80;101074.95;1742915;82;20605;-55
2021/03/27 00:34:50;;;;;;;;;;;;;;;7.54;59.92;101071.15;1742791;82;20255;-55
2021/03/27 00:37:57;;;;;;;;;;;;;;;7.53;59.95;101076.25;1742768;82;20315;-55
2021/03/27 00:41:03;;;;;;;;;;;;;;;7.55;60.04;101071.01;1742638;81;20214;-55
2021/03/27 00:44:09;;;;;;;;;;;;;;;7.64;59.96;101065.23;1742708;82;20225;-56
2021/03/27 00:47:14;;;;;;;;;;;;;;;7.68;59.75;101069.88;1742669;82;20220;-56
2021/03/27 00:50:22;;;;;;;;;;;;;;;7.71;59.72;101068.26;1742566;82;20269;-56
2021/03/27 00:53:46;;;;;;;;;;;;;;;7.75;59.69;101073.28;1742738;82;20284;-56
2021/03/27 00:57:10;;;;;;;;;;;;;;;7.78;59.57;101074.85;1740171;82;20221;-56
2021/03/27 01:00:25;;;;;;;;;;;;;;;7.76;59.46;101072.76;1740260;82;20320;-56
2021/03/27 01:03:38;;;;;;;;;;;;;;;7.71;59.55;101073.70;1739555;82;20211;-56
2021/03/27 01:07:03;;;;;;;;;;;;;;;7.69;59.70;101071.62;1740330;82;20324;-56
2021/03/27 01:10:20;;;;;;;;;;;;;;;7.71;59.78;101066.38;1723548;82;20213;-56
2021/03/27 01:13:45;;;;;;;;;;;;;;;7.69;59.97;101076.55;1740263;82;20292;-55
2021/03/27 01:16:55;;;;;;;;;;;;;;;7.68;59.92;101073.47;1740502;81;20276;-55
2021/03/27 01:20:02;;;;;;;;;;;;;;;7.62;59.96;101072.67;1740446;82;20300;-55
2021/03/27 01:23:08;;;;;;;;;;;;;;;7.57;60.11;101077.67;1740352;82;20261;-54
2021/03/27 01:26:17;;;;;;;;;;;;;;;7.56;60.17;101073.24;1725275;82;20280;-55
2021/03/27 01:29:23;;;;;;;;;;;;;;;7.57;60.20;101077.19;1740365;82;20576;-55
2021/03/27 01:32:34;;;;;;;;;;;;;;;7.58;60.16;101081.63;1740416;82;20304;-54
2021/03/27 01:35:40;;;;;;;;;;;;;;;7.63;60.16;101077.11;1740222;82;20262;-55
2021/03/27 01:38:53;;;;;;;;;;;;;;;7.64;60.04;101082.42;1740186;82;20715;-55
2021/03/27 01:42:08;;;;;;;;;;;;;;;7.63;60.03;101080.70;1740424;82;20217;-55
2021/03/27 01:45:30;;;;;;;;;;;;;;;7.63;59.99;101077.64;1740395;82;20320;-55
2021/03/27 01:48:53;;;;;;;;;;;;;;;7.66;59.96;101073.27;1740397;82;20217;-54
2021/03/27 01:52:09;;;;;;;;;;;;;;;7.68;59.85;101078.05;1740393;82;20621;-55
2021/03/27 01:55:36;;;;;;;;;;;;;;;7.68;59.81;101076.69;1740177;82;20259;-55
2021/03/27 01:58:45;;;;;;;;;;;;;;;7.67;59.78;101085.38;1753731;82;20217;-54
2021/03/27 02:02:01;;;;;;;;;;;;;;;7.64;59.86;101090.59;1733798;82;20233;-55
2021/03/27 02:05:14;;;;;;;;;;;;;;;7.63;59.96;101089.38;1753741;81;20214;-55
2021/03/27 02:08:25;;;;;;;;;;;;;;;7.66;59.96;101091.81;1753857;82;20248;-57
2021/03/27 02:11:40;;;;;;;;;;;;;;;7.68;59.97;101097.13;1754001;81;20560;-54
2021/03/27 02:14:56;;;;;;;;;;;;;;;7.69;59.93;101090.69;1754128;81;20237;-54
2021/03/27 02:18:03;;;;;;;;;;;;;;;7.70;59.93;101092.41;1754074;81;20248;-55
2021/03/27 02:21:33;;;;;;;;;;;;;;;7.72;59.86;101101.31;1754339;82;20220;-55
2021/03/27 02:24:49;;;;;;;;;;;;;;;7.72;59.82;101097.22;1746753;82;20208;-54
2021/03/27 02:28:05;;;;;;;;;;;;;;;7.68;59.88;101093.03;1754017;82;20484;-54
2021/03/27 02:31:16;;;;;;;;;;;;;;;7.64;59.93;101091.95;1754013;81;20215;-55
2021/03/27 02:34:32;;;;;;;;;;;;;;;7.61;59.98;101096.33;1754361;82;20312;-54
2021/03/27 02:37:41;;;;;;;;;;;;;;;7.58;60.09;101100.70;1754123;82;20221;-54
2021/03/27 02:40:48;;;;;;;;;;;;;;;7.57;60.21;101096.75;1753912;82;20216;-55
2021/03/27 02:43:55;;;;;;;;;;;;;;;7.58;60.23;101104.78;1754235;82;20636;-55
2021/03/27 02:47:01;;;;;;;;;;;;;;;7.60;60.29;101100.06;1754142;81;20219;-55
2021/03/27 02:50:16;;;;;;;;;;;;;;;7.55;60.31;101099.61;1754072;82;20270;-55
2021/03/27 02:53:27;;;;;;;;;;;;;;;7.51;60.51;101102.76;1753927;82;20278;-54
2021/03/27 02:57:06;;;;;;;;;;;;;;;7.47;60.67;101101.30;1753471;80;20252;-55
2021/03/27 03:00:20;;;;;;;;;;;;;;;7.41;60.85;101104.58;1742817;82;20198;-55
2021/03/27 03:03:32;;;;;;;;;;;;;;;7.38;61.01;101104.37;1742669;82;20257;-55
2021/03/27 03:06:45;;;;;;;;;;;;;;;7.39;61.19;101107.45;1742644;82;20212;-55
2021/03/27 03:10:12;;;;;;;;;;;;;;;7.43;61.25;101108.91;1742671;82;20284;-55
2021/03/27 03:13:25;;;;;;;;;;;;;;;7.52;61.37;101110.80;1742727;82;20261;-55
2021/03/27 03:16:35;;;;;;;;;;;;;;;7.59;61.16;101113.30;1741990;82;20248;-55
2021/03/27 03:19:51;;;;;;;;;;;;;;;7.62;61.22;101113.55;1739436;82;20287;-55
2021/03/27 03:23:02;;;;;;;;;;;;;;;7.71;61.16;101116.78;1742764;82;20205;-54
2021/03/27 03:26:13;;;;;;;;;;;;;;;7.79;61.03;101117.44;1742781;82;20268;-55
2021/03/27 03:29:20;;;;;;;;;;;;;;;7.84;60.89;101116.03;1742810;82;20534;-55
2021/03/27 03:32:28;;;;;;;;;;;;;;;7.86;60.78;101119.98;1742734;82;20284;-54
2021/03/27 03:35:42;;;;;;;;;;;;;;;7.82;60.75;101118.03;1742669;82;20811;-55
2021/03/27 03:39:06;;;;;;;;;;;;;;;7.78;60.84;101123.91;1742664;82;20236;-54
2021/03/27 03:42:23;;;;;;;;;;;;;;;7.77;60.99;101128.48;1742750;82;20213;-54
2021/03/27 03:45:31;;;;;;;;;;;;;;;7.76;61.01;101119.09;1742634;82;20304;-54
2021/03/27 03:48:47;;;;;;;;;;;;;;;7.77;61.22;101131.20;1742695;82;20280;-54
2021/03/27 03:52:01;;;;;;;;;;;;;;;7.76;61.23;101123.17;1742637;82;20284;-54
2021/03/27 03:55:33;;;;;;;;;;;;;;;7.74;61.29;101127.92;1742791;82;20307;-54
2021/03/27 03:58:52;;;;;;;;;;;;;;;7.71;61.43;101133.66;1742323;81;20288;-54
2021/03/27 04:01:59;;;;;;;;;;;;;;;7.65;61.46;101136.42;1742874;82;20213;-54
2021/03/27 04:05:28;;;;;;;;;;;;;;;7.54;61.73;101140.62;1742683;82;20240;-54
2021/03/27 04:08:35;;;;;;;;;;;;;;;7.47;62.02;101135.34;1742643;82;20288;-54
2021/03/27 04:11:47;;;;;;;;;;;;;;;7.47;62.23;101138.07;1742607;82;20288;-55
2021/03/27 04:15:12;;;;;;;;;;;;;;;7.48;62.24;101146.11;1742666;82;20222;-55
2021/03/27 04:18:33;;;;;;;;;;;;;;;7.50;62.30;101142.75;1742669;82;20217;-54
2021/03/27 04:22:01;;;;;;;;;;;;;;;7.52;62.31;101145.34;1742704;82;20288;-55
2021/03/27 04:25:41;;;;;;;;;;;;;;;7.56;62.45;101153.09;1742755;82;20264;-55
2021/03/27 04:28:58;;;;;;;;;;;;;;;7.63;62.36;101151.20;1742703;82;20229;-55
2021/03/27 04:32:12;;;;;;;;;;;;;;;7.68;62.30;101157.95;1742757;82;20213;-55
2021/03/27 04:35:22;;;;;;;;;;;;;;;7.73;62.30;101154.80;1742784;82;20300;-55
2021/03/27 04:38:46;;;;;;;;;;;;;;;7.80;62.21;101159.55;1742645;82;20233;-55
2021/03/27 04:42:12;;;;;;;;;;;;;;;7.81;62.12;101165.87;1742730;82;20209;-55
2021/03/27 04:45:31;;;;;;;;;;;;;;;7.84;62.20;101166.95;1742800;82;20297;-55
2021/03/27 04:48:51;;;;;;;;;;;;;;;7.93;62.20;101168.34;1742599;82;20572;-55
2021/03/27 04:52:11;;;;;;;;;;;;;;;8.03;62.01;101167.00;1742723;82;20236;-55
2021/03/27 04:55:25;;;;;;;;;;;;;;;8.05;61.90;101166.36;1742662;82;20217;-55
2021/03/27 04:58:35;;;;;;;;;;;;;;;8.05;61.88;101180.00;1742081;80;20244;-55
2021/03/27 05:02:00;;;;;;;;;;;;;;;8.06;61.86;101188.03;1742715;82;20319;-55
2021/03/27 05:05:08;;;;;;;;;;;;;;;8.02;61.96;101195.28;1742742;82;20288;-55
2021/03/27 05:08:33;;;;;;;;;;;;;;;7.94;62.24;101197.84;1742714;82;20323;-55
2021/03/27 05:11:48;;;;;;;;;;;;;;;7.87;62.51;101192.08;1742726;82;20284;-55
2021/03/27 05:15:15;;;;;;;;;;;;;;;7.84;62.83;101190.99;1743804;81;20204;-55
2021/03/27 05:18:33;;;;;;;;;;;;;;;7.84;63.02;101202.38;1748407;81;20588;-55
2021/03/27 05:21:46;;;;;;;;;;;;;;;7.81;63.20;101204.03;1704040;84;20295;-55
2021/03/27 05:25:28;;;;;;;;;;;;;;;7.76;63.34;101207.66;1696132;84;20208;-55
2021/03/27 05:28:47;;;;;;;;;;;;;;;7.69;63.55;101211.95;1688306;83;20276;-55
2021/03/27 05:32:08;;;;;;;;;;;;;;;7.61;63.83;101218.94;1686801;84;20287;-55
2021/03/27 05:35:16;;;;;;;;;;;;;;;7.58;63.98;101212.89;1687541;84;20292;-55
2021/03/27 05:38:34;;;;;;;;;;;;;;;7.56;64.16;101215.75;1705524;81;20235;-55
2021/03/27 05:42:17;;;;;;;;;;;;;;;7.58;64.34;101216.48;1674714;86;20311;-55
2021/03/27 05:45:47;;;;;;;;;;;;;;;7.72;64.56;101217.13;1674674;86;20262;-55
2021/03/27 05:49:06;;;;;;;;;;;;;;;7.94;64.51;101210.11;1738499;82;20338;-55
2021/03/27 05:52:29;;;;;;;;;;;;;;;8.13;64.19;101208.80;1697382;84;20648;-55
2021/03/27 05:55:49;;;;;;;;;;;;;;;8.29;64.06;101214.61;1687430;83;20312;-55
2021/03/27 05:59:10;;;;;;;;;;;;;;;8.45;63.35;101213.55;1687030;84;20244;-55
2021/03/27 06:02:24;;;;;;;;;;;;;;;8.56;63.16;101211.53;1687089;83;20284;-55
2021/03/27 06:05:40;;;;;;;;;;;;;;;8.72;62.84;101221.38;1665834;85;20215;-55
2021/03/27 06:09:21;;;;;;;;;;;;;;;8.84;62.50;101238.48;1737509;81;20291;-55
2021/03/27 06:12:44;;;;;;;;;;;;;;;8.92;62.03;101235.41;1697050;84;20283;-54
2021/03/27 06:15:54;;;;;;;;;;;;;;;8.99;61.74;101235.70;1686445;84;20209;-55
2021/03/27 06:19:28;;;;;;;;;;;;;;;9.07;61.27;101235.80;1686901;84;20204;-55
2021/03/27 06:22:48;;;;;;;;;;;;;;;9.16;61.15;101233.58;1687139;83;20445;-54
2021/03/27 06:25:57;;;;;;;;;;;;;;;9.38;60.96;101235.98;1686940;84;20484;-55
2021/03/27 06:29:31;;;;;;;;;;;;;;;9.61;60.07;101244.70;1688301;83;20304;-54
2021/03/27 06:32:56;;;;;;;;;;;;;;;9.75;60.09;101240.95;1686694;83;20216;-54
2021/03/27 06:36:18;;;;;;;;;;;;;;;9.99;59.75;101230.88;1688952;83;20216;-56
2021/03/27 06:39:50;;;;;;;;;;;;;;;10.22;58.98;101244.52;1686851;85;20244;-55
2021/03/27 06:43:26;;;;;;;;;;;;;;;10.36;58.00;101236.66;1687345;83;20208;-56
2021/03/27 06:46:45;;;;;;;;;;;;;;;10.40;57.63;101247.64;1687262;84;20283;-56
2021/03/27 06:49:58;;;;;;;;;;;;;;;10.40;57.01;101253.12;1688544;84;20208;-55
2021/03/27 06:53:24;;;;;;;;;;;;;;;10.34;56.79;101243.28;1688728;83;20265;-55
2021/03/27 06:56:36;;;;;;;;;;;;;;;10.23;57.26;101243.00;1689596;83;20256;-55
2021/03/27 07:00:08;;;;;;;;;;;;;;;10.19;57.71;101241.60;1688889;83;20252;-55
2021/03/27 07:03:31;;;;;;;;;;;;;;;10.18;58.42;101252.17;1658733;84;20233;-55
2021/03/27 07:07:02;;;;;;;;;;;;;;;10.19;58.67;101249.81;1661470;85;20222;-55
2021/03/27 07:10:35;;;;;;;;;;;;;;;10.26;58.67;101246.80;1655756;86;20254;-55
2021/03/27 07:13:50;;;;;;;;;;;;;;;10.33;58.27;101252.03;1659837;85;20218;-55
2021/03/27 07:17:13;;;;;;;;;;;;;;;10.35;58.00;101264.19;1710742;83;20256;-55
2021/03/27 07:20:32;;;;;;;;;;;;;;;10.29;57.52;101253.33;1710976;84;20317;-55
2021/03/27 07:23:44;;;;;;;;;;;;;;;10.25;57.64;101255.16;1713419;82;20290;-54
2021/03/27 07:27:09;;;;;;;;;;;;;;;10.17;58.17;101258.66;1711145;84;20302;-55
2021/03/27 07:30:33;;;;;;;;;;;;;;;10.19;58.62;101262.62;1711310;84;20316;-55
2021/03/27 07:34:12;;;;;;;;;;;;;;;10.24;58.95;101258.39;1711228;84;20291;-55
2021/03/27 07:37:29;;;;;;;;;;;;;;;10.30;58.24;101256.94;1711222;84;20279;-55
2021/03/27 07:40:39;;;;;;;;;;;;;;;10.32;58.46;101264.50;1711354;84;20315;-55
2021/03/27 07:44:13;;;;;;;;;;;;;;;10.37;58.65;101263.50;1711808;83;20282;-56
2021/03/27 07:47:25;;;;;;;;;;;;;;;10.41;58.25;101264.44;1711848;83;20208;-55
2021/03/27 07:50:44;;;;;;;;;;;;;;;10.49;58.26;101260.43;1711555;84;20618;-55
2021/03/27 07:54:21;;;;;;;;;;;;;;;10.66;58.34;101260.08;1649562;86;20225;-56
2021/03/27 07:57:29;;;;;;;;;;;;;;;10.84;57.39;101260.09;1712748;83;20212;-55
2021/03/27 08:00:42;;;;;;;;;;;;;;;10.91;57.29;101256.56;1673971;84;20238;-56
2021/03/27 08:04:22;;;;;;;;;;;;;;;11.00;56.64;101272.58;1672796;83;20215;-55
2021/03/27 08:07:57;;;;;;;;;;;;;;;10.97;56.70;101265.55;1672827;85;20251;-55
2021/03/27 08:11:27;;;;;;;;;;;;;;;11.05;56.03;101257.91;1668719;86;20207;-55
2021/03/27 08:14:49;;;;;;;;;;;;;;;11.11;55.72;101265.49;1657462;86;20206;-56
2021/03/27 08:18:05;;;;;;;;;;;;;;;11.23;55.16;101258.23;1673870;85;20598;-55
2021/03/27 08:21:31;;;;;;;;;;;;;;;11.33;54.00;101253.53;1673069;85;20207;-55
2021/03/27 08:25:10;;;;;;;;;;;;;;;11.42;52.92;101251.19;1673292;85;20250;-55
2021/03/27 08:28:25;;;;;;;;;;;;;;;11.54;53.43;101258.65;1673804;85;20183;-56
2021/03/27 08:32:02;;;;;;;;;;;;;;;11.58;53.44;101248.56;1672466;84;20255;-56
2021/03/27 08:35:22;;;;;;;;;;;;;;;11.63;53.00;101259.95;1645282;86;20252;-56
2021/03/27 08:38:46;;;;;;;;;;;;;;;11.62;52.57;101259.55;1645356;87;20245;-56
2021/03/27 08:41:57;;;;;;;;;;;;;;;11.72;53.18;101249.88;1646301;86;20213;-56
2021/03/27 08:45:14;;;;;;;;;;;;;;;11.89;51.71;101251.18;1645543;87;20326;-55
2021/03/27 08:48:56;;;;;;;;;;;;;;;11.94;51.11;101249.31;1646418;87;20593;-56
2021/03/27 08:52:18;;;;;;;;;;;;;;;11.98;51.34;101243.86;1645505;87;20242;-56
2021/03/27 08:55:36;;;;;;;;;;;;;;;12.03;51.37;101244.23;1645491;87;20249;-56
2021/03/27 08:58:59;;;;;;;;;;;;;;;12.04;51.01;101248.69;1651358;86;20586;-56
2021/03/27 09:02:10;;;;;;;;;;;;;;;12.11;50.47;101255.25;1670617;81;20643;-56
2021/03/27 09:05:25;;;;;;;;;;;;;;;12.31;50.22;101246.22;1690170;83;20570;-55
2021/03/27 09:08:32;;;;;;;;;;;;;;;12.42;48.48;101253.66;1690372;83;20248;-55
2021/03/27 09:12:04;;;;;;;;;;;;;;;12.39;48.15;101251.24;1678231;83;20569;-56
2021/03/27 09:15:18;;;;;;;;;;;;;;;12.40;48.81;101265.31;1700627;84;20232;-56
2021/03/27 09:18:26;;;;;;;;;;;;;;;12.42;48.28;101269.27;1698678;83;20246;-55
2021/03/27 09:21:51;;;;;;;;;;;;;;;12.38;48.77;101259.65;1706468;83;20200;-55
2021/03/27 09:25:02;;;;;;;;;;;;;;;12.38;48.97;101263.27;1694043;83;20604;-56
2021/03/27 09:28:44;;;;;;;;;;;;;;;12.46;49.37;101259.68;1700771;83;20565;-56
2021/03/27 09:32:09;;;;;;;;;;;;;;;12.65;49.09;101260.27;1707142;83;20569;-55
2021/03/27 09:35:29;;;;;;;;;;;;;;;12.75;48.90;101262.86;1711936;83;20287;-55
2021/03/27 09:38:57;;;;;;;;;;;;;;;12.82;47.70;101256.52;1709584;83;20277;-56
2021/03/27 09:42:33;;;;;;;;;;;;;;;12.93;47.17;101250.69;1703043;83;20655;-56
2021/03/27 09:46:11;;;;;;;;;;;;;;;13.13;45.99;101257.61;1697960;83;20235;-57
2021/03/27 09:49:32;;;;;;;;;;;;;;;13.08;46.32;101255.88;1741840;82;20209;-56
2021/03/27 09:52:53;;;;;;;;;;;;;;;13.00;47.08;101263.25;1738940;82;20213;-56
2021/03/27 09:56:12;;;;;;;;;;;;;;;13.06;47.39;101258.47;1670627;85;20210;-57
2021/03/27 09:59:38;;;;;;;;;;;;;;;13.20;47.04;101246.28;1702750;84;20561;-58
2021/03/27 10:03:04;;;;;;;;;;;;;;;13.43;46.62;101240.91;1706864;83;20295;-59
2021/03/27 10:06:43;;;;;;;;;;;;;;;13.48;44.68;101256.39;1737832;82;20276;-59
2021/03/27 10:10:15;;;;;;;;;;;;;;;13.54;45.33;101248.30;1740617;82;20460;-60
2021/03/27 10:13:47;;;;;;;;;;;;;;;13.75;45.01;101255.17;1715149;82;20224;-59
2021/03/27 10:17:03;;;;;;;;;;;;;;;13.83;46.71;101256.50;1730921;82;20218;-59
2021/03/27 10:20:12;;;;;;;;;;;;;;;13.88;46.71;101254.95;1745197;81;20266;-58
2021/03/27 10:23:27;;;;;;;;;;;;;;;13.86;46.52;101255.64;1739242;82;20205;-58
2021/03/27 10:26:34;;;;;;;;;;;;;;;13.91;46.09;101257.86;1738479;82;20254;-58
2021/03/27 10:30:04;;;;;;;;;;;;;;;13.90;45.00;101252.90;1743306;82;20252;-58
2021/03/27 10:33:34;;;;;;;;;;;;;;;13.97;45.29;101264.06;1744859;82;20216;-58
2021/03/27 10:36:47;;;;;;;;;;;;;;;14.22;45.20;101255.52;1744416;82;20240;-58
2021/03/27 10:40:01;;;;;;;;;;;;;;;14.50;44.79;101246.31;1743263;81;20486;-58
2021/03/27 10:43:44;;;;;;;;;;;;;;;14.73;45.00;101240.34;1732720;82;20220;-59
2021/03/27 10:46:53;;;;;;;;;;;;;;;14.87;43.88;101245.91;1741274;82;20676;-58
2021/03/27 10:50:22;;;;;;;;;;;;;;;14.83;42.83;101239.57;1736471;82;20215;-59
2021/03/27 10:53:30;;;;;;;;;;;;;;;14.67;42.93;101254.83;1739226;82;20599;-58
2021/03/27 10:56:45;;;;;;;;;;;;;;;14.30;43.60;101250.02;1739713;82;20208;-58
2021/03/27 11:00:11;;;;;;;;;;;;;;;14.27;44.01;101243.48;1739128;82;20223;-58
2021/03/27 11:03:51;;;;;;;;;;;;;;;14.44;43.53;101245.16;1732816;82;20444;-58
2021/03/27 11:07:28;;;;;;;;;;;;;;;14.74;43.54;101237.91;1744690;82;20239;-58
2021/03/27 11:10:54;;;;;;;;;;;;;;;14.70;42.39;101251.19;1745026;82;20203;-59
2021/03/27 11:14:24;;;;;;;;;;;;;;;14.44;42.50;101257.55;1745386;82;20196;-58
2021/03/27 11:18:06;;;;;;;;;;;;;;;14.16;42.58;101253.48;1745542;81;20200;-58
2021/03/27 11:21:17;;;;;;;;;;;;;;;13.89;43.27;101255.29;1745360;82;20203;-58
2021/03/27 11:24:53;;;;;;;;;;;;;;;13.73;43.44;101257.23;1745696;81;20238;-58
2021/03/27 11:28:16;;;;;;;;;;;;;;;13.63;43.82;101253.80;1743096;82;20196;-58
2021/03/27 11:31:26;;;;;;;;;;;;;;;13.69;44.17;101259.98;1713842;83;20223;-56
2021/03/27 11:34:45;;;;;;;;;;;;;;;13.73;44.58;101265.49;1714733;82;20580;-56
2021/03/27 11:37:55;;;;;;;;;;;;;;;13.70;44.61;101263.09;1711369;83;20291;-56
2021/03/27 11:41:03;;;;;;;;;;;;;;;13.63;44.66;101262.05;1744912;82;20611;-56
2021/03/27 11:44:33;;;;;;;;;;;;;;;13.64;44.91;101265.17;1746406;80;20199;-55
2021/03/27 11:47:55;;;;;;;;;;;;;;;13.63;44.60;101260.67;1744667;82;20223;-55
2021/03/27 11:51:14;;;;;;;;;;;;;;;13.54;44.75;101255.72;1745028;82;20207;-56
2021/03/27 11:54:52;;;;;;;;;;;;;;;13.48;44.67;101260.02;1745486;82;20518;-56
2021/03/27 11:58:02;;;;;;;;;;;;;;;13.40;44.87;101264.64;1744890;82;20208;-56
2021/03/27 12:01:16;;;;;;;;;;;;;;;13.44;45.21;101265.53;1745112;82;20258;-56
2021/03/27 12:04:46;;;;;;;;;;;;;;;13.53;45.32;101262.23;1745528;82;20212;-57
2021/03/27 12:08:16;;;;;;;;;;;;;;;13.64;45.81;101271.52;1745300;82;20611;-57
2021/03/27 12:11:31;;;;;;;;;;;;;;;13.71;46.41;101271.67;1745479;82;20203;-57
2021/03/27 12:14:40;;;;;;;;;;;;;;;13.73;46.37;101273.20;1745720;82;20200;-57
2021/03/27 12:17:51;;;;;;;;;;;;;;;13.78;46.42;101274.92;1745580;82;20298;-58
2021/03/27 12:21:12;;;;;;;;;;;;;;;13.83;46.55;101267.01;1745481;82;20235;-55
2021/03/27 12:24:38;;;;;;;;;;;;;;;13.94;46.34;101269.92;1745382;82;20192;-55
2021/03/27 12:27:51;;;;;;;;;;;;;;;14.00;44.66;101278.31;1745216;82;20278;-56
2021/03/27 12:31:11;;;;;;;;;;;;;;;14.06;42.54;101282.27;1745454;82;20210;-55
2021/03/27 12:34:34;;;;;;;;;;;;;;;14.19;42.54;101284.80;1745527;82;20191;-55
2021/03/27 12:37:57;;;;;;;;;;;;;;;14.47;42.54;101278.36;1744944;82;20473;-54
2021/03/27 12:41:07;;;;;;;;;;;;;;;14.73;42.63;101274.80;1745278;82;20207;-56
2021/03/27 12:44:12;;;;;;;;;;;;;;;14.78;42.88;101284.73;1744493;82;20241;-57
2021/03/27 12:47:40;;;;;;;;;;;;;;;14.75;43.10;101280.97;1740264;82;20584;-55
2021/03/27 12:50:47;;;;;;;;;;;;;;;14.73;43.32;101274.80;1740188;82;20230;-57
2021/03/27 12:53:56;;;;;;;;;;;;;;;14.59;43.57;101274.16;1740305;82;20641;-55
2021/03/27 12:57:16;;;;;;;;;;;;;;;14.51;43.76;101277.82;1740135;82;20620;-55
2021/03/27 13:00:46;;;;;;;;;;;;;;;14.45;43.48;101273.55;1740413;82;20541;-56
2021/03/27 13:03:56;;;;;;;;;;;;;;;14.41;41.37;101273.03;1740279;82;20225;-55
2021/03/27 13:07:21;;;;;;;;;;;;;;;14.37;40.25;101269.44;1769747;78;20209;-55
2021/03/27 13:10:41;;;;;;;;;;;;;;;14.30;39.66;101271.21;1758302;80;20224;-56
2021/03/27 13:14:18;;;;;;;;;;;;;;;14.19;40.10;101279.83;1742483;82;20256;-56
2021/03/27 13:17:33;;;;;;;;;;;;;;;14.07;39.86;101272.45;1742748;82;20312;-56
2021/03/27 13:20:50;;;;;;;;;;;;;;;13.88;38.41;101281.11;1746929;81;20247;-57
2021/03/27 13:24:33;;;;;;;;;;;;;;;13.65;38.25;101290.27;1747815;81;20215;-56
2021/03/27 13:27:52;;;;;;;;;;;;;;;13.47;38.80;101276.19;1747650;82;20211;-56
2021/03/27 13:31:16;;;;;;;;;;;;;;;13.41;38.75;101281.52;1748749;80;20243;-56
2021/03/27 13:34:30;;;;;;;;;;;;;;;13.38;38.75;101281.33;1747809;82;20283;-56
2021/03/27 13:37:42;;;;;;;;;;;;;;;13.43;39.07;101282.17;1737776;82;20219;-56
2021/03/27 13:40:45;;;;;;;;;;;;;;;13.56;39.17;101272.05;1740938;81;20375;-55
2021/03/27 13:43:57;;;;;;;;;;;;;;;13.72;39.33;101277.51;1747668;82;20270;-56
2021/03/27 13:47:14;;;;;;;;;;;;;;;13.84;39.52;101278.88;1747974;81;20323;-55
2021/03/27 13:50:25;;;;;;;;;;;;;;;14.00;39.47;101282.98;1747131;82;20625;-55
2021/03/27 13:53:44;;;;;;;;;;;;;;;14.10;39.85;101282.24;1717717;83;20245;-56
2021/03/27 13:57:07;;;;;;;;;;;;;;;14.12;39.86;101280.18;1717790;83;20581;-56
2021/03/27 14:00:21;;;;;;;;;;;;;;;14.19;40.37;101290.84;1721155;81;20205;-57
2021/03/27 14:03:35;;;;;;;;;;;;;;;14.18;41.07;101287.73;1761055;80;20591;-57
2021/03/27 14:06:45;;;;;;;;;;;;;;;14.16;41.54;101287.07;1771100;81;20291;-58
2021/03/27 14:10:03;;;;;;;;;;;;;;;14.21;42.29;101280.48;1756628;81;20224;-56
2021/03/27 14:13:29;;;;;;;;;;;;;;;14.37;43.18;101284.59;1699949;83;20205;-57
2021/03/27 14:16:37;;;;;;;;;;;;;;;14.59;43.24;101286.56;1700547;83;20220;-57
2021/03/27 14:20:00;;;;;;;;;;;;;;;14.84;43.25;101288.17;1703471;83;20224;-57
2021/03/27 14:23:31;;;;;;;;;;;;;;;14.97;42.92;101285.14;1689235;84;20258;-56
2021/03/27 14:26:57;;;;;;;;;;;;;;;14.93;42.29;101290.70;1683111;84;20266;-56
2021/03/27 14:30:02;;;;;;;;;;;;;;;14.76;43.05;101288.22;1647324;84;20236;-56
2021/03/27 14:33:26;;;;;;;;;;;;;;;14.51;43.60;101287.97;1704372;83;20296;-56
2021/03/27 14:36:46;;;;;;;;;;;;;;;14.27;44.01;101297.73;1707836;84;20607;-56
2021/03/27 14:39:59;;;;;;;;;;;;;;;14.10;44.49;101289.12;1711955;83;20218;-56
2021/03/27 14:43:40;;;;;;;;;;;;;;;13.91;45.11;101288.14;1737486;81;20207;-57
2021/03/27 14:46:56;;;;;;;;;;;;;;;13.73;45.83;101293.84;1709109;83;20540;-57
2021/03/27 14:50:23;;;;;;;;;;;;;;;13.57;46.58;101291.65;1742527;81;20288;-58
2021/03/27 14:53:54;;;;;;;;;;;;;;;13.43;47.09;101291.30;1692126;84;20319;-57
2021/03/27 14:57:20;;;;;;;;;;;;;;;13.33;47.62;101296.10;1741337;82;20564;-57
2021/03/27 15:00:34;;;;;;;;;;;;;;;13.26;48.24;101298.34;1742422;82;20252;-57
2021/03/27 15:04:01;;;;;;;;;;;;;;;13.25;48.13;101301.63;1741687;82;20244;-57
2021/03/27 15:07:07;;;;;;;;;;;;;;;13.25;46.94;101296.12;1742443;82;20205;-57
2021/03/27 15:10:30;;;;;;;;;;;;;;;13.28;46.44;101295.78;1752789;81;20220;-57
2021/03/27 15:13:50;;;;;;;;;;;;;;;13.34;45.88;101301.09;1753060;80;20221;-56
2021/03/27 15:16:58;;;;;;;;;;;;;;;13.31;45.68;101296.81;1743882;81;20222;-56
2021/03/27 15:20:07;;;;;;;;;;;;;;;13.26;45.63;101303.33;1743277;82;20218;-55
2021/03/27 15:23:43;;;;;;;;;;;;;;;13.20;45.58;101302.65;1743449;82;20261;-56
2021/03/27 15:30:19;;;;;;;;;;;;;;;13.24;45.63;101307.30;1736786;82;20210;-56
2021/03/27 15:34:03;;;;;;;;;;;;;;;13.30;45.60;101314.86;1742045;82;20270;-57
2021/03/27 15:37:25;;;;;;;;;;;;;;;13.45;45.46;101315.37;1749179;81;20239;-56
2021/03/27 15:40:34;;;;;;;;;;;;;;;13.59;45.01;101315.73;1738523;82;20371;-56
2021/03/27 15:43:51;;;;;;;;;;;;;;;13.52;44.92;101315.02;1736602;82;20251;-56
2021/03/27 15:47:13;;;;;;;;;;;;;;;13.43;44.89;101316.56;1736542;82;20370;-56
2021/03/27 15:50:38;;;;;;;;;;;;;;;13.29;45.59;101316.73;1767762;81;20636;-55
2021/03/27 15:53:45;;;;;;;;;;;;;;;13.15;46.46;101318.79;1744857;82;20204;-56
2021/03/27 15:57:01;;;;;;;;;;;;;;;13.01;46.33;101336.45;1744816;81;20515;-56
2021/03/27 16:00:29;;;;;;;;;;;;;;;12.83;46.29;101336.54;1753272;81;20212;-56
2021/03/27 16:03:46;;;;;;;;;;;;;;;12.68;46.58;101335.48;1766129;80;20212;-56
2021/03/27 16:06:52;;;;;;;;;;;;;;;12.54;46.92;101339.36;1765844;80;20280;-56
2021/03/27 16:10:09;;;;;;;;;;;;;;;12.35;47.13;101348.72;1766421;80;20235;-57
2021/03/27 16:13:29;;;;;;;;;;;;;;;12.21;47.63;101358.07;1768967;80;20293;-56
2021/03/27 16:16:40;;;;;;;;;;;;;;;12.10;48.26;101377.03;1768874;80;20224;-56
2021/03/27 16:20:04;;;;;;;;;;;;;;;11.92;49.28;101380.35;1768706;80;20240;-56
2021/03/27 16:23:17;;;;;;;;;;;;;;;11.74;50.45;101378.14;1768011;80;20208;-55
2021/03/27 16:26:35;;;;;;;;;;;;;;;11.59;51.55;101395.63;1759242;81;20255;-56
2021/03/27 16:30:02;;;;;;;;;;;;;;;11.44;52.41;101398.59;1768284;81;20487;-56
2021/03/27 16:33:35;;;;;;;;;;;;;;;11.28;53.04;101395.67;1768416;80;20246;-56
2021/03/27 16:37:00;;;;;;;;;;;;;;;11.15;53.65;101399.30;1768394;80;20212;-57
2021/03/27 16:40:23;;;;;;;;;;;;;;;11.03;54.28;101390.96;1768156;80;20207;-56
2021/03/27 16:43:42;;;;;;;;;;;;;;;10.95;54.84;101391.36;1768345;80;20207;-56
2021/03/27 16:47:05;;;;;;;;;;;;;;;10.88;55.23;101394.38;1759369;81;20251;-56
2021/03/27 16:50:27;;;;;;;;;;;;;;;10.77;55.44;101394.55;1768829;80;20211;-56
2021/03/27 16:53:44;;;;;;;;;;;;;;;10.67;55.71;101401.48;1768964;80;20564;-56
2021/03/27 16:56:52;;;;;;;;;;;;;;;10.62;55.92;101398.33;1768553;80;20583;-56
2021/03/27 17:00:17;;;;;;;;;;;;;;;10.56;56.14;101403.89;1768556;80;20207;-56
2021/03/27 17:03:33;;;;;;;;;;;;;;;10.52;56.41;101413.44;1768729;80;20215;-57
2021/03/27 17:06:42;;;;;;;;;;;;;;;10.52;56.72;101422.14;1768411;80;20259;-55
2021/03/27 17:09:50;;;;;;;;;;;;;;;10.52;56.99;101428.49;1766703;80;20244;-55
2021/03/27 17:13:22;;;;;;;;;;;;;;;10.55;56.99;101430.92;1744752;82;20285;-55